Terminal Aerodrome Forecast
Issued by NWS

Home | Current Version | Previous Version | Text Only | Print | Product List | Glossary On
Versions: 1 2 3 4 5 6 7 8 9 10 11 12 13 14 15 16
000
FTUS46 KSGX 181100
TAFONT
TAF
KONT 181138Z 1812/1918 VRB04KT P6SM SCT030 BKN080
     FM181900 26007KT P6SM SCT040 SCT090
     FM190300 VRB04KT P6SM SCT030=

USA.gov is the U.S. government's official web portal to all federal, state and local government web resources and services.